createdAt,value
2022-08-16T00:00:47.825Z,0.30
2022-08-16T00:03:20.828Z,0.88
2022-08-16T00:05:57.650Z,0.13
2022-08-16T00:08:35.859Z,0.25
2022-08-16T00:11:06.576Z,0.25
2022-08-16T00:13:41.346Z,0.05
2022-08-16T00:17:00.507Z,0.25
2022-08-16T00:19:00.897Z,0.45
2022-08-16T00:21:30.646Z,0.65
2022-08-16T00:24:04.672Z,0.98
2022-08-16T00:26:36.866Z,0.55
2022-08-16T00:29:15.763Z,0.20
2022-08-16T00:31:59.146Z,0.47
2022-08-16T00:34:45.193Z,0.20
2022-08-16T00:37:20.941Z,0.17
2022-08-16T00:39:58.138Z,0.28
2022-08-16T00:42:31.390Z,0.40
2022-08-16T00:45:06.566Z,1.55
2022-08-16T00:47:48.925Z,0.82
2022-08-16T00:50:20.396Z,0.50
2022-08-16T00:52:53.589Z,0.85
2022-08-16T00:55:39.249Z,0.47
2022-08-16T00:58:34.926Z,0.20
2022-08-16T01:01:27.418Z,0.25
2022-08-16T01:04:28.923Z,0.13
2022-08-16T01:07:03.103Z,0.38
2022-08-16T01:09:57.620Z,0.22
2022-08-16T01:12:41.362Z,0.20
2022-08-16T01:15:20.601Z,0.65
2022-08-16T01:18:05.757Z,0.80
2022-08-16T01:24:51.952Z,0.10
2022-08-16T01:27:52.090Z,0.35
2022-08-16T01:30:36.766Z,10.70
2022-08-16T01:33:14.442Z,0.30
2022-08-16T01:35:52.761Z,0.45
2022-08-16T01:38:25.798Z,0.32
2022-08-16T01:41:02.515Z,0.75
2022-08-16T01:43:33.816Z,0.30
2022-08-16T01:46:29.606Z,0.70
2022-08-16T01:48:58.535Z,1.10
2022-08-16T01:51:29.239Z,0.30
2022-08-16T01:53:59.555Z,0.10
2022-08-16T01:56:34.819Z,0.05
2022-08-16T01:59:06.691Z,0.30
2022-08-16T02:01:44.806Z,1.90
2022-08-16T02:04:21.470Z,0.20
2022-08-16T02:07:11.369Z,0.63
2022-08-16T02:09:41.819Z,0.38
2022-08-16T02:12:50.095Z,1.55
2022-08-16T02:15:02.161Z,0.43
2022-08-16T02:17:30.219Z,0.35
2022-08-16T02:20:00.608Z,0.40
2022-08-16T02:22:33.659Z,0.60
2022-08-16T02:25:04.983Z,0.82
2022-08-16T02:27:35.331Z,2.42
2022-08-16T02:30:08.659Z,0.47
2022-08-16T02:32:51.099Z,0.95
2022-08-16T02:35:23.246Z,0.65
2022-08-16T02:37:53.455Z,0.52
2022-08-16T02:40:26.855Z,1.88
2022-08-16T02:42:57.000Z,0.80
2022-08-16T02:45:28.884Z,0.35
2022-08-16T02:48:01.460Z,1.10
2022-08-16T02:50:53.584Z,0.28
2022-08-16T02:53:23.859Z,0.55
2022-08-16T02:55:52.925Z,2.42
2022-08-16T02:58:24.982Z,0.75
2022-08-16T03:00:56.007Z,1.25
2022-08-16T03:03:26.596Z,1.52
2022-08-16T03:05:55.703Z,0.85
2022-08-16T03:08:50.111Z,2.22
2022-08-16T03:11:16.677Z,0.22
2022-08-16T03:13:51.413Z,1.35
2022-08-16T03:16:36.632Z,0.57
2022-08-16T03:19:08.499Z,0.88
2022-08-16T03:21:38.834Z,0.82
2022-08-16T03:24:28.831Z,0.13
2022-08-16T03:27:01.779Z,0.70
2022-08-16T03:29:34.738Z,0.63
2022-08-16T03:32:06.236Z,2.85
2022-08-16T03:34:34.771Z,0.52
2022-08-16T03:37:04.247Z,1.35
2022-08-16T03:39:35.479Z,2.00
2022-08-16T03:42:11.216Z,0.30
2022-08-16T03:44:50.512Z,1.95
2022-08-16T03:47:22.343Z,2.25
2022-08-16T03:49:52.492Z,0.52
2022-08-16T03:52:23.580Z,1.67
2022-08-16T03:54:58.054Z,0.40
2022-08-16T03:57:32.184Z,0.50
2022-08-16T04:00:20.648Z,0.68
2022-08-16T04:03:07.662Z,0.82
2022-08-16T04:05:44.172Z,0.95
2022-08-16T04:08:23.036Z,0.70
2022-08-16T04:10:57.868Z,0.40
2022-08-16T04:13:59.076Z,0.75
2022-08-16T04:16:26.803Z,2.85
2022-08-16T04:19:04.220Z,1.05
2022-08-16T04:21:34.350Z,1.00
2022-08-16T04:24:03.824Z,2.08
2022-08-16T04:26:36.848Z,0.85
2022-08-16T04:29:16.794Z,1.05
2022-08-16T04:31:56.698Z,1.63
2022-08-16T04:34:33.690Z,1.50
2022-08-16T04:37:02.782Z,2.05
2022-08-16T04:39:46.260Z,1.00
2022-08-16T04:42:26.183Z,0.88
2022-08-16T04:44:58.783Z,3.85
2022-08-16T04:47:35.969Z,1.00
2022-08-16T04:50:14.505Z,1.90
2022-08-16T04:52:59.128Z,1.88
2022-08-16T04:55:37.886Z,1.48
2022-08-16T04:58:44.032Z,0.73
2022-08-16T05:00:58.771Z,5.40
2022-08-16T05:03:29.564Z,3.80
2022-08-16T05:06:02.236Z,3.28
2022-08-16T05:08:35.595Z,2.47
2022-08-16T05:11:11.535Z,1.08
2022-08-16T05:13:43.127Z,4.40
2022-08-16T05:16:24.109Z,2.45
2022-08-16T05:19:04.898Z,3.15
2022-08-16T05:21:38.865Z,2.58
2022-08-16T05:24:10.909Z,2.72
2022-08-16T05:26:43.305Z,3.17
2022-08-16T05:29:18.727Z,2.83
2022-08-16T05:32:02.699Z,2.00
2022-08-16T05:34:33.783Z,3.40
2022-08-16T05:37:02.495Z,4.50
2022-08-16T05:39:37.690Z,3.22
2022-08-16T05:42:09.915Z,2.28
2022-08-16T05:44:39.994Z,4.80
2022-08-16T05:47:15.203Z,3.05
2022-08-16T05:49:50.522Z,7.00
2022-08-16T05:52:20.757Z,3.47
2022-08-16T05:55:01.181Z,3.33
2022-08-16T05:57:34.401Z,4.68
2022-08-16T06:00:09.743Z,3.13
2022-08-16T06:02:40.783Z,2.42
2022-08-16T06:05:31.930Z,3.45
2022-08-16T06:08:11.004Z,3.33
2022-08-16T06:11:05.626Z,2.95
2022-08-16T06:13:49.654Z,2.10
2022-08-16T06:16:26.997Z,3.53
2022-08-16T06:18:56.443Z,1.73
2022-08-16T06:21:27.673Z,3.40
2022-08-16T06:24:54.032Z,7.20
2022-08-16T06:26:58.515Z,3.45
2022-08-16T06:29:32.068Z,1.65
2022-08-16T06:32:02.644Z,3.25
2022-08-16T06:34:57.126Z,2.78
2022-08-16T06:37:37.555Z,1.60
2022-08-16T06:40:15.819Z,4.05
2022-08-16T06:42:57.697Z,4.47
2022-08-16T06:45:51.892Z,4.63
2022-08-16T06:48:32.295Z,9.02
2022-08-16T06:51:04.693Z,2.92
2022-08-16T06:53:41.140Z,3.58
2022-08-16T06:56:14.868Z,4.75
2022-08-16T07:01:54.766Z,3.92
2022-08-16T07:04:32.570Z,2.78
2022-08-16T07:07:14.531Z,3.60
2022-08-16T07:09:44.983Z,3.47
2022-08-16T07:12:15.458Z,4.20
2022-08-16T07:14:47.827Z,2.60
2022-08-16T07:17:19.413Z,4.10
2022-08-16T07:20:02.988Z,3.58
2022-08-16T07:22:53.037Z,3.45
2022-08-16T07:25:46.042Z,3.17
2022-08-16T07:28:20.992Z,3.38
2022-08-16T07:30:55.185Z,2.10
2022-08-16T07:33:52.867Z,2.58
2022-08-16T07:36:34.254Z,3.97
2022-08-16T07:39:03.687Z,6.07
2022-08-16T07:41:37.909Z,2.10
2022-08-16T07:44:15.422Z,2.70
2022-08-16T07:46:45.752Z,4.38
2022-08-16T07:49:22.411Z,6.63
2022-08-16T07:51:54.527Z,2.80
2022-08-16T07:54:38.039Z,2.80
2022-08-16T07:57:13.212Z,1.30
2022-08-16T07:59:46.113Z,3.05
2022-08-16T08:02:20.129Z,1.55
2022-08-16T08:04:53.452Z,3.13
2022-08-16T08:07:21.812Z,6.13
2022-08-16T08:09:53.114Z,5.18
2022-08-16T08:12:32.708Z,1.38
2022-08-16T08:15:09.692Z,5.05
2022-08-16T08:17:43.136Z,2.28
2022-08-16T08:20:23.873Z,1.98
2022-08-16T08:23:01.788Z,1.75
2022-08-16T08:31:01.117Z,10.15
2022-08-16T09:17:01.439Z,26.60
2022-08-16T09:32:28.759Z,27.08
2022-08-16T09:35:31.941Z,22.65
2022-08-16T09:41:56.483Z,24.10
2022-08-16T09:45:09.381Z,21.10
2022-08-16T09:56:52.994Z,22.80
2022-08-16T10:00:44.857Z,20.83
2022-08-16T10:29:23.679Z,19.40
2022-08-16T10:31:54.093Z,20.63
2022-08-16T10:34:32.307Z,20.38
2022-08-16T10:37:02.032Z,22.67
2022-08-16T10:39:40.423Z,23.27
2022-08-16T10:42:13.409Z,18.17
2022-08-16T10:44:42.280Z,17.05
2022-08-16T10:47:15.156Z,17.33
2022-08-16T10:49:45.259Z,20.67
2022-08-16T10:52:18.280Z,19.08
2022-08-16T10:57:35.782Z,16.42
2022-08-16T11:00:21.472Z,14.20
2022-08-16T11:02:58.664Z,15.65
2022-08-16T11:05:59.492Z,14.60
2022-08-16T11:08:35.507Z,12.52
2022-08-16T11:11:11.713Z,15.50
2022-08-16T11:14:05.956Z,15.38
2022-08-16T11:19:28.326Z,16.63
2022-08-16T11:22:38.968Z,14.52
2022-08-16T11:25:11.393Z,14.85
2022-08-16T11:27:36.258Z,16.30
2022-08-16T11:30:09.000Z,14.93
2022-08-16T11:32:40.971Z,13.77
2022-08-16T11:35:15.903Z,14.43
2022-08-16T11:40:40.800Z,15.20
2022-08-16T11:43:16.850Z,12.88
2022-08-16T11:45:54.030Z,12.98
2022-08-16T11:48:23.504Z,16.83
2022-08-16T11:50:53.201Z,15.70
2022-08-16T11:53:22.020Z,16.75
2022-08-16T11:55:54.622Z,14.07
2022-08-16T11:58:24.500Z,16.35
2022-08-16T12:00:54.601Z,14.88
2022-08-16T12:03:34.797Z,15.15
2022-08-16T12:06:10.961Z,13.60
2022-08-16T12:08:55.706Z,13.57
2022-08-16T12:11:31.472Z,15.40
2022-08-16T12:17:23.031Z,12.57
2022-08-16T12:19:53.847Z,13.25
2022-08-16T12:22:25.342Z,10.55
2022-08-16T12:24:54.135Z,16.52
2022-08-16T12:27:24.059Z,15.77
2022-08-16T12:29:52.731Z,15.98
2022-08-16T12:32:38.137Z,13.07
2022-08-16T12:35:14.515Z,13.00
2022-08-16T12:37:46.270Z,12.02
2022-08-16T12:40:24.624Z,13.35
2022-08-16T12:42:59.032Z,16.23
2022-08-16T12:45:56.334Z,16.05
2022-08-16T12:48:54.807Z,12.35
2022-08-16T12:56:18.912Z,13.50
2022-08-16T12:59:49.109Z,13.57
2022-08-16T13:02:33.617Z,14.57
2022-08-16T13:05:07.041Z,13.25
2022-08-16T13:10:37.895Z,14.18
2022-08-16T13:13:10.162Z,9.80
2022-08-16T13:15:55.727Z,10.95
2022-08-16T13:18:34.624Z,14.38
2022-08-16T13:21:04.909Z,12.07
2022-08-16T13:23:35.714Z,14.68
2022-08-16T13:26:04.924Z,13.00
2022-08-16T13:28:35.209Z,13.27
2022-08-16T13:31:03.697Z,14.07
2022-08-16T13:33:37.117Z,12.00
2022-08-16T13:36:17.182Z,12.35
2022-08-16T13:38:57.574Z,11.82
2022-08-16T13:41:30.125Z,11.48
2022-08-16T13:44:00.877Z,13.35
2022-08-16T13:46:33.396Z,11.35
2022-08-16T13:49:01.911Z,12.45
2022-08-16T13:51:31.349Z,11.40
2022-08-16T13:54:03.954Z,14.55
2022-08-16T13:56:38.052Z,11.95
2022-08-16T13:59:19.311Z,12.32
2022-08-16T14:01:55.777Z,13.05
2022-08-16T14:04:27.227Z,10.32
2022-08-16T14:06:57.646Z,9.25
2022-08-16T14:09:28.211Z,11.02
2022-08-16T14:11:58.188Z,10.82
2022-08-16T14:14:31.558Z,10.43
2022-08-16T14:17:01.689Z,10.25
2022-08-16T14:19:31.125Z,12.95
2022-08-16T14:22:14.055Z,12.05
2022-08-16T14:24:45.341Z,11.43
2022-08-16T14:27:17.089Z,12.02
2022-08-16T14:29:49.455Z,13.10
2022-08-16T14:32:27.114Z,11.23
2022-08-16T14:38:39.315Z,10.68
2022-08-16T14:41:10.436Z,12.93
2022-08-16T14:43:39.104Z,12.02
2022-08-16T14:46:10.582Z,12.30
2022-08-16T14:49:15.087Z,14.77
2022-08-16T14:51:49.558Z,15.13
2022-08-16T14:54:27.348Z,16.10
2022-08-16T14:56:58.913Z,16.65
2022-08-16T14:59:27.771Z,16.98
2022-08-16T15:02:23.472Z,17.08
2022-08-16T15:05:04.608Z,18.88
2022-08-16T15:07:35.373Z,19.52
2022-08-16T15:10:03.899Z,22.67
2022-08-16T15:12:33.887Z,21.02
2022-08-16T15:15:12.403Z,22.65
2022-08-16T15:17:56.043Z,21.40
2022-08-16T15:20:27.038Z,20.00
2022-08-16T15:23:00.224Z,19.27
2022-08-16T15:25:31.925Z,21.70
2022-08-16T15:28:04.770Z,22.17
2022-08-16T15:30:57.608Z,26.15
2022-08-16T15:33:27.364Z,24.67
2022-08-16T15:35:59.635Z,25.52
2022-08-16T15:39:06.781Z,23.23
2022-08-16T15:42:27.468Z,22.00
2022-08-16T15:45:12.217Z,27.02
2022-08-16T15:47:43.054Z,23.63
2022-08-16T15:50:26.815Z,26.02
2022-08-16T15:52:59.713Z,24.33
2022-08-16T15:55:35.218Z,26.83
2022-08-16T15:58:34.957Z,24.73
2022-08-16T16:01:10.463Z,24.02
2022-08-16T16:03:39.728Z,23.13
2022-08-16T16:06:17.135Z,25.10
2022-08-16T16:09:00.622Z,26.75
2022-08-16T16:11:35.108Z,22.98
2022-08-16T16:14:07.399Z,24.45
2022-08-16T16:16:35.596Z,25.27
2022-08-16T16:19:32.790Z,25.10
2022-08-16T16:22:02.841Z,22.00
2022-08-16T16:24:39.144Z,27.17
2022-08-16T16:27:10.078Z,25.23
2022-08-16T16:29:57.743Z,23.90
2022-08-16T16:41:45.834Z,22.25
2022-08-16T16:44:18.298Z,27.67
2022-08-16T16:47:01.264Z,26.02
2022-08-16T16:49:29.294Z,24.27
2022-08-16T16:52:07.048Z,24.33
2022-08-16T16:54:39.347Z,23.92
2022-08-16T16:57:34.102Z,21.13
2022-08-16T17:00:29.892Z,30.83
2022-08-16T17:02:58.473Z,23.10
2022-08-16T17:05:29.247Z,26.40
2022-08-16T17:08:06.029Z,28.17
2022-08-16T17:14:32.793Z,25.30
2022-08-16T17:17:25.687Z,26.88
2022-08-16T17:22:46.418Z,23.88
2022-08-16T17:25:24.028Z,28.73
2022-08-16T17:30:45.170Z,29.05
2022-08-16T17:33:14.067Z,23.38
2022-08-16T17:35:56.578Z,24.95
2022-08-16T17:39:27.328Z,24.38
2022-08-16T17:39:28.093Z,28.67
2022-08-16T17:41:16.919Z,21.80
2022-08-16T17:43:46.478Z,23.63
2022-08-16T17:46:51.501Z,30.20
2022-08-16T17:49:13.850Z,25.23
2022-08-16T17:51:41.968Z,25.67
2022-08-16T17:54:20.568Z,24.63
2022-08-16T17:57:01.262Z,27.02
2022-08-16T17:59:31.814Z,25.40
2022-08-16T18:02:15.317Z,26.35
2022-08-16T18:04:57.181Z,26.77
2022-08-16T18:07:26.694Z,29.80
2022-08-16T18:10:33.528Z,28.92
2022-08-16T18:13:04.211Z,27.67
2022-08-16T18:15:33.953Z,25.02
2022-08-16T18:18:07.079Z,24.25
2022-08-16T18:20:56.682Z,28.35
2022-08-16T18:23:27.452Z,27.15
2022-08-16T18:25:57.701Z,24.48
2022-08-16T18:28:27.506Z,26.55
2022-08-16T18:31:01.155Z,27.38
2022-08-16T18:33:36.524Z,23.70
2022-08-16T18:36:21.079Z,24.20
2022-08-16T18:38:49.911Z,25.10
2022-08-16T18:41:18.153Z,27.05
2022-08-16T18:43:59.204Z,25.15
2022-08-16T18:46:35.754Z,25.08
2022-08-16T18:49:03.970Z,24.45
2022-08-16T18:51:32.368Z,24.90
2022-08-16T18:54:00.472Z,23.77
2022-08-16T18:56:56.485Z,27.27
2022-08-16T18:59:16.709Z,25.73
2022-08-16T19:01:47.463Z,25.70
2022-08-16T19:04:56.411Z,26.80
2022-08-16T19:07:04.240Z,26.08
2022-08-16T19:09:32.266Z,30.00
2022-08-16T19:12:05.242Z,29.85
2022-08-16T19:14:33.513Z,27.00
2022-08-16T19:17:02.947Z,28.00
2022-08-16T19:19:31.019Z,27.55
2022-08-16T19:21:59.188Z,28.42
2022-08-16T19:24:29.396Z,25.55
2022-08-16T19:27:01.513Z,25.10
2022-08-16T19:29:29.884Z,25.00
2022-08-16T19:31:58.147Z,28.27
2022-08-16T19:34:27.663Z,27.13
2022-08-16T19:36:56.675Z,31.88
2022-08-16T19:39:28.072Z,28.73
2022-08-16T19:41:58.728Z,28.55
2022-08-16T19:44:27.861Z,31.65
2022-08-16T19:46:56.693Z,28.75
2022-08-16T19:49:24.780Z,26.80
2022-08-16T19:51:54.879Z,28.42
2022-08-16T19:54:22.942Z,29.90
2022-08-16T19:56:51.022Z,26.33
2022-08-16T19:59:21.475Z,33.40
2022-08-16T20:01:52.560Z,34.95
2022-08-16T20:04:22.067Z,28.58
2022-08-16T20:06:50.499Z,32.88
2022-08-16T20:09:22.699Z,32.97
2022-08-16T20:11:52.440Z,31.40
2022-08-16T20:14:25.246Z,30.85
2022-08-16T20:16:56.456Z,35.00
2022-08-16T20:19:25.063Z,33.40
2022-08-16T20:21:53.176Z,33.97
2022-08-16T20:24:34.023Z,32.15
2022-08-16T20:27:03.527Z,31.02
2022-08-16T20:29:31.717Z,31.95
2022-08-16T20:32:00.112Z,28.42
2022-08-16T20:34:28.215Z,30.90
2022-08-16T20:36:56.300Z,31.42
2022-08-16T20:39:25.823Z,33.15
2022-08-16T20:41:54.103Z,34.40
2022-08-16T20:44:22.863Z,34.90
2022-08-16T20:46:53.109Z,36.75
2022-08-16T20:49:21.193Z,33.17
2022-08-16T20:51:53.466Z,30.60
2022-08-16T20:54:26.026Z,33.95
2022-08-16T20:56:54.098Z,33.45
2022-08-16T20:59:22.330Z,34.53
2022-08-16T21:01:51.659Z,33.67
2022-08-16T21:04:21.251Z,36.83
2022-08-16T21:06:53.926Z,31.77
2022-08-16T21:09:28.103Z,31.67
2022-08-16T21:11:58.937Z,32.08
2022-08-16T21:14:27.662Z,34.35
2022-08-16T21:16:56.263Z,36.75
2022-08-16T21:19:24.427Z,34.10
2022-08-16T21:21:52.662Z,34.25
2022-08-16T21:24:20.916Z,36.85
2022-08-16T21:26:55.466Z,34.83
2022-08-16T21:29:26.186Z,38.15
2022-08-16T21:32:08.086Z,35.88
2022-08-16T21:34:36.645Z,38.70
2022-08-16T21:37:05.152Z,40.20
2022-08-16T21:39:33.637Z,41.65
2022-08-16T21:42:09.143Z,35.45
2022-08-16T21:44:38.939Z,37.83
2022-08-16T21:47:08.195Z,38.42
2022-08-16T21:49:36.752Z,37.20
2022-08-16T21:52:05.827Z,38.50
2022-08-16T21:54:34.714Z,39.78
2022-08-16T21:57:08.660Z,39.88
2022-08-16T21:59:38.834Z,35.53
2022-08-16T22:02:07.525Z,37.42
2022-08-16T22:04:38.793Z,36.60
2022-08-16T22:07:07.988Z,35.40
2022-08-16T22:09:36.668Z,34.33
2022-08-16T22:12:06.920Z,40.35
2022-08-16T22:14:35.125Z,34.20
2022-08-16T22:17:03.189Z,40.40
2022-08-16T22:19:31.512Z,42.92
2022-08-16T22:22:01.503Z,44.42
2022-08-16T22:24:29.990Z,36.28
2022-08-16T22:26:58.171Z,39.35
2022-08-16T22:29:27.861Z,36.20
2022-08-16T22:31:57.104Z,35.38
2022-08-16T22:34:25.236Z,38.45
2022-08-16T22:36:53.783Z,37.30
2022-08-16T22:39:21.878Z,36.65
2022-08-16T22:41:50.456Z,39.55
2022-08-16T22:44:18.918Z,38.70
2022-08-16T22:46:48.413Z,34.63
2022-08-16T22:49:16.700Z,38.45
2022-08-16T22:51:44.964Z,38.90
2022-08-16T22:54:43.908Z,37.92
2022-08-16T22:57:01.360Z,35.90
2022-08-16T22:59:30.431Z,37.05
2022-08-16T23:02:00.503Z,40.60
2022-08-16T23:04:28.779Z,39.58
2022-08-16T23:06:57.112Z,42.08
2022-08-16T23:09:25.649Z,40.17
2022-08-16T23:11:54.150Z,41.65
2022-08-16T23:14:22.225Z,38.85
2022-08-16T23:16:50.371Z,42.53
2022-08-16T23:19:19.937Z,40.00
2022-08-16T23:21:49.348Z,37.47
2022-08-16T23:24:19.423Z,38.30
2022-08-16T23:26:49.346Z,37.90
2022-08-16T23:29:24.771Z,38.35
2022-08-16T23:32:10.703Z,40.45
2022-08-16T23:34:40.288Z,37.88
2022-08-16T23:37:08.479Z,35.40
2022-08-16T23:39:36.814Z,37.35
2022-08-16T23:42:13.029Z,42.50
2022-08-16T23:44:42.363Z,41.17
2022-08-16T23:47:26.881Z,42.90
2022-08-16T23:50:03.144Z,38.40
2022-08-16T23:52:40.601Z,36.95
2022-08-16T23:55:20.633Z,35.90
2022-08-16T23:57:48.885Z,34.53
